sensor_id;sensor_type;location;lat;lon;timestamp;temperature;humidity
8105;DHT22;4095;48.942;9.104;2023-07-30T00:01:48;21.10;99.90
8105;DHT22;4095;48.942;9.104;2023-07-30T00:04:14;21.10;99.90
8105;DHT22;4095;48.942;9.104;2023-07-30T00:06:39;21.10;99.90
8105;DHT22;4095;48.942;9.104;2023-07-30T00:09:05;21.00;99.90
8105;DHT22;4095;48.942;9.104;2023-07-30T00:11:30;21.00;99.90
8105;DHT22;4095;48.942;9.104;2023-07-30T00:13:56;21.00;99.90
8105;DHT22;4095;48.942;9.104;2023-07-30T00:16:21;20.90;99.90
8105;DHT22;4095;48.942;9.104;2023-07-30T00:18:47;20.90;99.90
8105;DHT22;4095;48.942;9.104;2023-07-30T00:21:12;20.90;99.90
8105;DHT22;4095;48.942;9.104;2023-07-30T00:23:38;20.90;99.90
8105;DHT22;4095;48.942;9.104;2023-07-30T00:26:04;20.80;99.90
8105;DHT22;4095;48.942;9.104;2023-07-30T00:28:29;20.80;99.90
8105;DHT22;4095;48.942;9.104;2023-07-30T00:30:55;20.70;99.90
8105;DHT22;4095;48.942;9.104;2023-07-30T00:33:20;20.70;99.90
8105;DHT22;4095;48.942;9.104;2023-07-30T00:35:46;20.70;99.90
8105;DHT22;4095;48.942;9.104;2023-07-30T00:38:12;20.70;99.90
8105;DHT22;4095;48.942;9.104;2023-07-30T00:40:41;20.60;99.90
8105;DHT22;4095;48.942;9.104;2023-07-30T00:43:07;20.60;99.90
8105;DHT22;4095;48.942;9.104;2023-07-30T00:45:32;20.50;99.90
8105;DHT22;4095;48.942;9.104;2023-07-30T00:47:58;20.50;99.90
8105;DHT22;4095;48.942;9.104;2023-07-30T00:50:24;20.40;99.90
8105;DHT22;4095;48.942;9.104;2023-07-30T00:52:50;20.50;99.90
8105;DHT22;4095;48.942;9.104;2023-07-30T00:55:16;20.50;99.90
8105;DHT22;4095;48.942;9.104;2023-07-30T00:57:42;20.50;99.90
8105;DHT22;4095;48.942;9.104;2023-07-30T01:00:08;20.50;99.90
8105;DHT22;4095;48.942;9.104;2023-07-30T01:02:36;20.50;99.90
8105;DHT22;4095;48.942;9.104;2023-07-30T01:05:02;20.50;99.90
8105;DHT22;4095;48.942;9.104;2023-07-30T01:07:30;20.50;99.90
8105;DHT22;4095;48.942;9.104;2023-07-30T01:09:56;20.50;99.90
8105;DHT22;4095;48.942;9.104;2023-07-30T01:12:22;20.50;99.90
8105;DHT22;4095;48.942;9.104;2023-07-30T01:14:49;20.50;99.90
8105;DHT22;4095;48.942;9.104;2023-07-30T01:17:15;20.50;99.90
8105;DHT22;4095;48.942;9.104;2023-07-30T01:19:41;20.50;99.90
8105;DHT22;4095;48.942;9.104;2023-07-30T01:22:07;20.50;99.90
8105;DHT22;4095;48.942;9.104;2023-07-30T01:24:32;20.50;99.90
8105;DHT22;4095;48.942;9.104;2023-07-30T01:27:05;20.50;99.90
8105;DHT22;4095;48.942;9.104;2023-07-30T01:29:33;20.50;99.90
8105;DHT22;4095;48.942;9.104;2023-07-30T01:32:05;20.50;99.90
8105;DHT22;4095;48.942;9.104;2023-07-30T01:34:34;20.40;99.90
8105;DHT22;4095;48.942;9.104;2023-07-30T01:37:01;20.50;99.90
8105;DHT22;4095;48.942;9.104;2023-07-30T01:39:27;20.50;99.90
8105;DHT22;4095;48.942;9.104;2023-07-30T01:41:54;20.50;99.90
8105;DHT22;4095;48.942;9.104;2023-07-30T01:44:20;20.50;99.90
8105;DHT22;4095;48.942;9.104;2023-07-30T01:46:46;20.40;99.90
8105;DHT22;4095;48.942;9.104;2023-07-30T01:49:11;20.40;99.90
8105;DHT22;4095;48.942;9.104;2023-07-30T01:51:37;20.40;99.90
8105;DHT22;4095;48.942;9.104;2023-07-30T01:54:03;20.40;99.90
8105;DHT22;4095;48.942;9.104;2023-07-30T01:56:28;20.40;99.90
8105;DHT22;4095;48.942;9.104;2023-07-30T01:58:54;20.30;99.90
8105;DHT22;4095;48.942;9.104;2023-07-30T02:01:20;20.30;99.90
8105;DHT22;4095;48.942;9.104;2023-07-30T02:03:45;20.30;99.90
8105;DHT22;4095;48.942;9.104;2023-07-30T02:06:11;20.30;99.90
8105;DHT22;4095;48.942;9.104;2023-07-30T02:08:37;20.30;99.90
8105;DHT22;4095;48.942;9.104;2023-07-30T02:11:03;20.20;99.90
8105;DHT22;4095;48.942;9.104;2023-07-30T02:13:28;20.20;99.90
8105;DHT22;4095;48.942;9.104;2023-07-30T02:15:54;20.20;99.90
8105;DHT22;4095;48.942;9.104;2023-07-30T02:18:20;20.20;99.90
8105;DHT22;4095;48.942;9.104;2023-07-30T02:20:45;20.20;99.90
8105;DHT22;4095;48.942;9.104;2023-07-30T02:23:13;20.20;99.90
8105;DHT22;4095;48.942;9.104;2023-07-30T02:25:39;20.20;99.90
8105;DHT22;4095;48.942;9.104;2023-07-30T02:28:04;20.30;99.90
8105;DHT22;4095;48.942;9.104;2023-07-30T02:30:30;20.30;99.90
8105;DHT22;4095;48.942;9.104;2023-07-30T02:32:56;20.20;99.90
8105;DHT22;4095;48.942;9.104;2023-07-30T02:35:21;20.20;99.90
8105;DHT22;4095;48.942;9.104;2023-07-30T02:37:47;20.10;99.90
8105;DHT22;4095;48.942;9.104;2023-07-30T02:40:12;20.20;99.90
8105;DHT22;4095;48.942;9.104;2023-07-30T02:42:38;20.20;99.90
8105;DHT22;4095;48.942;9.104;2023-07-30T02:45:04;20.20;99.90
8105;DHT22;4095;48.942;9.104;2023-07-30T02:47:30;20.10;99.90
8105;DHT22;4095;48.942;9.104;2023-07-30T02:49:56;20.10;99.90
8105;DHT22;4095;48.942;9.104;2023-07-30T02:52:21;20.10;99.90
8105;DHT22;4095;48.942;9.104;2023-07-30T02:54:47;20.10;99.90
8105;DHT22;4095;48.942;9.104;2023-07-30T02:57:13;20.00;99.90
8105;DHT22;4095;48.942;9.104;2023-07-30T02:59:38;20.00;99.90
8105;DHT22;4095;48.942;9.104;2023-07-30T03:02:05;20.00;99.90
8105;DHT22;4095;48.942;9.104;2023-07-30T03:04:32;20.00;99.90
8105;DHT22;4095;48.942;9.104;2023-07-30T03:06:58;19.90;99.90
8105;DHT22;4095;48.942;9.104;2023-07-30T03:09:23;20.00;99.90
8105;DHT22;4095;48.942;9.104;2023-07-30T03:11:50;20.00;99.90
8105;DHT22;4095;48.942;9.104;2023-07-30T03:14:16;19.90;99.90
8105;DHT22;4095;48.942;9.104;2023-07-30T03:16:41;19.90;99.90
8105;DHT22;4095;48.942;9.104;2023-07-30T03:19:07;19.90;99.90
8105;DHT22;4095;48.942;9.104;2023-07-30T03:21:33;19.90;99.90
8105;DHT22;4095;48.942;9.104;2023-07-30T03:23:58;19.90;99.90
8105;DHT22;4095;48.942;9.104;2023-07-30T03:26:24;19.90;99.90
8105;DHT22;4095;48.942;9.104;2023-07-30T03:28:49;19.90;99.90
8105;DHT22;4095;48.942;9.104;2023-07-30T03:31:15;19.90;99.90
8105;DHT22;4095;48.942;9.104;2023-07-30T03:33:41;19.90;99.90
8105;DHT22;4095;48.942;9.104;2023-07-30T03:36:12;19.90;99.90
8105;DHT22;4095;48.942;9.104;2023-07-30T03:38:39;19.90;99.90
8105;DHT22;4095;48.942;9.104;2023-07-30T03:41:05;20.00;99.90
8105;DHT22;4095;48.942;9.104;2023-07-30T03:43:34;20.00;99.90
8105;DHT22;4095;48.942;9.104;2023-07-30T03:46:00;20.00;99.90
8105;DHT22;4095;48.942;9.104;2023-07-30T03:48:26;20.00;99.90
8105;DHT22;4095;48.942;9.104;2023-07-30T03:50:53;20.00;99.90
8105;DHT22;4095;48.942;9.104;2023-07-30T03:53:19;20.00;99.90
8105;DHT22;4095;48.942;9.104;2023-07-30T03:55:44;20.00;99.90
8105;DHT22;4095;48.942;9.104;2023-07-30T03:58:10;20.00;99.90
8105;DHT22;4095;48.942;9.104;2023-07-30T04:00:35;20.00;99.90
8105;DHT22;4095;48.942;9.104;2023-07-30T04:03:01;20.00;99.90
8105;DHT22;4095;48.942;9.104;2023-07-30T04:05:27;20.00;99.90
8105;DHT22;4095;48.942;9.104;2023-07-30T04:07:52;20.10;99.90
8105;DHT22;4095;48.942;9.104;2023-07-30T04:10:18;20.10;99.90
8105;DHT22;4095;48.942;9.104;2023-07-30T04:12:44;20.10;99.90
8105;DHT22;4095;48.942;9.104;2023-07-30T04:15:10;20.10;99.90
8105;DHT22;4095;48.942;9.104;2023-07-30T04:17:36;20.10;99.90
8105;DHT22;4095;48.942;9.104;2023-07-30T04:20:03;20.10;99.90
8105;DHT22;4095;48.942;9.104;2023-07-30T04:22:29;20.10;99.90
8105;DHT22;4095;48.942;9.104;2023-07-30T04:24:55;20.10;99.90
8105;DHT22;4095;48.942;9.104;2023-07-30T04:27:21;20.10;99.90
8105;DHT22;4095;48.942;9.104;2023-07-30T04:29:46;20.10;99.90
8105;DHT22;4095;48.942;9.104;2023-07-30T04:32:12;20.10;99.90
8105;DHT22;4095;48.942;9.104;2023-07-30T04:34:38;20.10;99.90
8105;DHT22;4095;48.942;9.104;2023-07-30T04:37:04;20.10;99.90
8105;DHT22;4095;48.942;9.104;2023-07-30T04:39:31;20.10;99.90
8105;DHT22;4095;48.942;9.104;2023-07-30T04:41:57;20.10;99.90
8105;DHT22;4095;48.942;9.104;2023-07-30T04:44:23;20.10;99.90
8105;DHT22;4095;48.942;9.104;2023-07-30T04:46:49;20.20;99.90
8105;DHT22;4095;48.942;9.104;2023-07-30T04:49:14;20.20;99.90
8105;DHT22;4095;48.942;9.104;2023-07-30T04:51:40;20.20;99.90
8105;DHT22;4095;48.942;9.104;2023-07-30T04:54:06;20.20;99.90
8105;DHT22;4095;48.942;9.104;2023-07-30T04:56:31;20.20;99.90
8105;DHT22;4095;48.942;9.104;2023-07-30T04:58:57;20.30;99.90
8105;DHT22;4095;48.942;9.104;2023-07-30T05:01:24;20.30;99.90
8105;DHT22;4095;48.942;9.104;2023-07-30T05:03:50;20.30;99.90
8105;DHT22;4095;48.942;9.104;2023-07-30T05:06:15;20.30;99.90
8105;DHT22;4095;48.942;9.104;2023-07-30T05:08:41;20.30;99.90
8105;DHT22;4095;48.942;9.104;2023-07-30T05:11:07;20.30;99.90
8105;DHT22;4095;48.942;9.104;2023-07-30T05:13:32;20.30;99.90
8105;DHT22;4095;48.942;9.104;2023-07-30T05:15:58;20.30;99.90
8105;DHT22;4095;48.942;9.104;2023-07-30T05:18:24;20.30;99.90
8105;DHT22;4095;48.942;9.104;2023-07-30T05:20:49;20.30;99.90
8105;DHT22;4095;48.942;9.104;2023-07-30T05:23:15;20.20;99.90
8105;DHT22;4095;48.942;9.104;2023-07-30T05:25:41;20.30;99.90
8105;DHT22;4095;48.942;9.104;2023-07-30T05:28:07;20.20;99.90
8105;DHT22;4095;48.942;9.104;2023-07-30T05:30:33;20.10;99.90
8105;DHT22;4095;48.942;9.104;2023-07-30T05:32:59;20.10;99.90
8105;DHT22;4095;48.942;9.104;2023-07-30T05:35:25;20.10;99.90
8105;DHT22;4095;48.942;9.104;2023-07-30T05:37:50;20.10;99.90
8105;DHT22;4095;48.942;9.104;2023-07-30T05:40:16;20.00;99.90
8105;DHT22;4095;48.942;9.104;2023-07-30T05:42:42;20.00;99.90
8105;DHT22;4095;48.942;9.104;2023-07-30T05:45:08;20.00;99.90
8105;DHT22;4095;48.942;9.104;2023-07-30T05:47:33;20.00;99.90
8105;DHT22;4095;48.942;9.104;2023-07-30T05:49:59;20.00;99.90
8105;DHT22;4095;48.942;9.104;2023-07-30T05:52:24;20.00;99.90
8105;DHT22;4095;48.942;9.104;2023-07-30T05:54:50;20.00;99.90
8105;DHT22;4095;48.942;9.104;2023-07-30T05:57:16;20.00;99.90
8105;DHT22;4095;48.942;9.104;2023-07-30T05:59:41;20.00;99.90
8105;DHT22;4095;48.942;9.104;2023-07-30T06:02:07;20.00;99.90
8105;DHT22;4095;48.942;9.104;2023-07-30T06:04:33;20.00;99.90
8105;DHT22;4095;48.942;9.104;2023-07-30T06:06:59;19.90;99.90
8105;DHT22;4095;48.942;9.104;2023-07-30T06:09:26;19.90;99.90
8105;DHT22;4095;48.942;9.104;2023-07-30T06:11:51;19.90;99.90
8105;DHT22;4095;48.942;9.104;2023-07-30T06:14:17;19.90;99.90
8105;DHT22;4095;48.942;9.104;2023-07-30T06:16:42;20.00;99.90
8105;DHT22;4095;48.942;9.104;2023-07-30T06:19:09;20.00;99.90
8105;DHT22;4095;48.942;9.104;2023-07-30T06:21:34;20.10;99.90
8105;DHT22;4095;48.942;9.104;2023-07-30T06:24:00;20.10;99.90
8105;DHT22;4095;48.942;9.104;2023-07-30T06:26:25;20.20;99.90
8105;DHT22;4095;48.942;9.104;2023-07-30T06:28:51;20.20;99.90
8105;DHT22;4095;48.942;9.104;2023-07-30T06:31:17;20.20;99.90
8105;DHT22;4095;48.942;9.104;2023-07-30T06:33:42;20.30;99.90
8105;DHT22;4095;48.942;9.104;2023-07-30T06:36:08;20.30;99.90
8105;DHT22;4095;48.942;9.104;2023-07-30T06:38:34;20.50;99.90
8105;DHT22;4095;48.942;9.104;2023-07-30T06:41:00;20.60;99.90
8105;DHT22;4095;48.942;9.104;2023-07-30T06:43:25;20.60;99.90
8105;DHT22;4095;48.942;9.104;2023-07-30T06:45:52;20.70;99.90
8105;DHT22;4095;48.942;9.104;2023-07-30T06:48:18;20.80;99.90
8105;DHT22;4095;48.942;9.104;2023-07-30T06:50:44;20.90;99.90
8105;DHT22;4095;48.942;9.104;2023-07-30T06:53:09;21.10;99.90
8105;DHT22;4095;48.942;9.104;2023-07-30T06:55:35;21.20;99.90
8105;DHT22;4095;48.942;9.104;2023-07-30T06:58:00;21.30;99.90
8105;DHT22;4095;48.942;9.104;2023-07-30T07:00:26;21.40;99.90
8105;DHT22;4095;48.942;9.104;2023-07-30T07:02:52;21.30;99.90
8105;DHT22;4095;48.942;9.104;2023-07-30T07:05:18;21.30;99.90
8105;DHT22;4095;48.942;9.104;2023-07-30T07:07:43;21.30;99.90
8105;DHT22;4095;48.942;9.104;2023-07-30T07:10:09;21.30;99.90
8105;DHT22;4095;48.942;9.104;2023-07-30T07:12:36;21.30;99.90
8105;DHT22;4095;48.942;9.104;2023-07-30T07:15:04;21.30;99.90
8105;DHT22;4095;48.942;9.104;2023-07-30T07:17:30;21.30;99.90
8105;DHT22;4095;48.942;9.104;2023-07-30T07:19:56;21.20;99.90
8105;DHT22;4095;48.942;9.104;2023-07-30T07:22:22;21.20;99.90
8105;DHT22;4095;48.942;9.104;2023-07-30T07:24:47;21.20;99.90
8105;DHT22;4095;48.942;9.104;2023-07-30T07:27:13;21.20;99.90
8105;DHT22;4095;48.942;9.104;2023-07-30T07:29:39;21.30;99.90
8105;DHT22;4095;48.942;9.104;2023-07-30T07:32:05;21.20;99.90
8105;DHT22;4095;48.942;9.104;2023-07-30T07:34:30;21.20;99.90
8105;DHT22;4095;48.942;9.104;2023-07-30T07:36:56;21.30;99.90
8105;DHT22;4095;48.942;9.104;2023-07-30T07:39:22;21.30;99.90
8105;DHT22;4095;48.942;9.104;2023-07-30T07:41:47;21.20;99.90
8105;DHT22;4095;48.942;9.104;2023-07-30T07:44:13;21.10;99.90
8105;DHT22;4095;48.942;9.104;2023-07-30T07:46:38;21.00;99.90
8105;DHT22;4095;48.942;9.104;2023-07-30T07:49:04;20.90;99.90
8105;DHT22;4095;48.942;9.104;2023-07-30T07:51:30;20.90;99.90
8105;DHT22;4095;48.942;9.104;2023-07-30T07:53:55;20.80;99.90
8105;DHT22;4095;48.942;9.104;2023-07-30T07:56:21;20.70;99.90
8105;DHT22;4095;48.942;9.104;2023-07-30T07:58:47;20.60;99.90
8105;DHT22;4095;48.942;9.104;2023-07-30T08:01:12;20.60;99.90
8105;DHT22;4095;48.942;9.104;2023-07-30T08:03:38;20.60;99.90
8105;DHT22;4095;48.942;9.104;2023-07-30T08:06:03;20.60;99.90
8105;DHT22;4095;48.942;9.104;2023-07-30T08:08:30;20.60;99.90
8105;DHT22;4095;48.942;9.104;2023-07-30T08:10:56;20.70;99.90
8105;DHT22;4095;48.942;9.104;2023-07-30T08:13:22;20.70;99.90
8105;DHT22;4095;48.942;9.104;2023-07-30T08:15:48;20.80;99.90
8105;DHT22;4095;48.942;9.104;2023-07-30T08:18:13;20.80;99.90
8105;DHT22;4095;48.942;9.104;2023-07-30T08:20:39;20.90;99.90
8105;DHT22;4095;48.942;9.104;2023-07-30T08:23:04;20.90;99.90
8105;DHT22;4095;48.942;9.104;2023-07-30T08:25:30;21.00;99.90
8105;DHT22;4095;48.942;9.104;2023-07-30T08:27:56;21.10;99.90
8105;DHT22;4095;48.942;9.104;2023-07-30T08:30:21;21.20;99.90
8105;DHT22;4095;48.942;9.104;2023-07-30T08:32:47;21.30;99.90
8105;DHT22;4095;48.942;9.104;2023-07-30T08:35:12;21.40;99.90
8105;DHT22;4095;48.942;9.104;2023-07-30T08:37:38;21.60;99.90
8105;DHT22;4095;48.942;9.104;2023-07-30T08:40:04;21.70;99.90
8105;DHT22;4095;48.942;9.104;2023-07-30T08:42:30;21.80;99.90
8105;DHT22;4095;48.942;9.104;2023-07-30T08:44:56;21.90;99.90
8105;DHT22;4095;48.942;9.104;2023-07-30T08:47:21;22.00;99.90
8105;DHT22;4095;48.942;9.104;2023-07-30T08:49:47;22.00;99.90
8105;DHT22;4095;48.942;9.104;2023-07-30T08:52:13;22.00;99.90
8105;DHT22;4095;48.942;9.104;2023-07-30T08:54:42;22.10;99.90
8105;DHT22;4095;48.942;9.104;2023-07-30T08:57:09;22.10;99.90
8105;DHT22;4095;48.942;9.104;2023-07-30T08:59:42;22.20;99.90
8105;DHT22;4095;48.942;9.104;2023-07-30T09:02:23;22.30;99.90
8105;DHT22;4095;48.942;9.104;2023-07-30T09:04:53;22.40;99.90
8105;DHT22;4095;48.942;9.104;2023-07-30T09:07:20;22.50;99.90
8105;DHT22;4095;48.942;9.104;2023-07-30T09:09:46;22.40;99.90
8105;DHT22;4095;48.942;9.104;2023-07-30T09:12:14;22.40;99.90
8105;DHT22;4095;48.942;9.104;2023-07-30T09:14:40;22.30;99.90
8105;DHT22;4095;48.942;9.104;2023-07-30T09:17:10;22.30;99.90
8105;DHT22;4095;48.942;9.104;2023-07-30T09:19:36;22.30;99.90
8105;DHT22;4095;48.942;9.104;2023-07-30T09:22:06;22.40;99.90
8105;DHT22;4095;48.942;9.104;2023-07-30T09:24:32;22.30;99.90
8105;DHT22;4095;48.942;9.104;2023-07-30T09:27:02;22.40;99.90
8105;DHT22;4095;48.942;9.104;2023-07-30T09:29:28;22.60;99.90
8105;DHT22;4095;48.942;9.104;2023-07-30T09:31:54;22.70;99.90
8105;DHT22;4095;48.942;9.104;2023-07-30T09:34:23;22.80;99.90
8105;DHT22;4095;48.942;9.104;2023-07-30T09:36:54;22.90;99.90
8105;DHT22;4095;48.942;9.104;2023-07-30T09:39:20;23.00;99.90
8105;DHT22;4095;48.942;9.104;2023-07-30T09:41:47;23.10;99.90
8105;DHT22;4095;48.942;9.104;2023-07-30T09:44:15;23.00;99.90
8105;DHT22;4095;48.942;9.104;2023-07-30T09:46:46;23.20;99.90
8105;DHT22;4095;48.942;9.104;2023-07-30T09:49:12;23.30;99.90
8105;DHT22;4095;48.942;9.104;2023-07-30T09:51:38;23.40;99.90
8105;DHT22;4095;48.942;9.104;2023-07-30T09:54:08;23.50;99.90
8105;DHT22;4095;48.942;9.104;2023-07-30T09:56:38;23.60;99.90
8105;DHT22;4095;48.942;9.104;2023-07-30T09:59:05;23.70;99.90
8105;DHT22;4095;48.942;9.104;2023-07-30T10:01:33;23.80;99.90
8105;DHT22;4095;48.942;9.104;2023-07-30T10:04:03;23.70;99.90
8105;DHT22;4095;48.942;9.104;2023-07-30T10:06:33;23.70;99.90
8105;DHT22;4095;48.942;9.104;2023-07-30T10:09:01;23.70;99.90
8105;DHT22;4095;48.942;9.104;2023-07-30T10:11:27;23.50;99.90
8105;DHT22;4095;48.942;9.104;2023-07-30T10:13:53;23.30;99.90
8105;DHT22;4095;48.942;9.104;2023-07-30T10:16:28;23.20;99.90
8105;DHT22;4095;48.942;9.104;2023-07-30T10:18:58;23.20;99.90
8105;DHT22;4095;48.942;9.104;2023-07-30T10:21:25;23.30;99.90
8105;DHT22;4095;48.942;9.104;2023-07-30T10:24:02;23.40;99.90
8105;DHT22;4095;48.942;9.104;2023-07-30T10:26:30;23.50;99.90
8105;DHT22;4095;48.942;9.104;2023-07-30T10:29:16;23.50;99.90
8105;DHT22;4095;48.942;9.104;2023-07-30T10:34:14;23.70;99.90
8105;DHT22;4095;48.942;9.104;2023-07-30T10:36:48;23.80;99.90
8105;DHT22;4095;48.942;9.104;2023-07-30T10:39:17;23.70;99.90
8105;DHT22;4095;48.942;9.104;2023-07-30T10:41:54;23.70;99.90
8105;DHT22;4095;48.942;9.104;2023-07-30T10:44:28;23.70;99.90
8105;DHT22;4095;48.942;9.104;2023-07-30T10:46:57;23.80;99.90
8105;DHT22;4095;48.942;9.104;2023-07-30T10:49:23;23.70;99.90
8105;DHT22;4095;48.942;9.104;2023-07-30T10:51:51;23.60;99.90
8105;DHT22;4095;48.942;9.104;2023-07-30T10:54:18;23.60;99.90
8105;DHT22;4095;48.942;9.104;2023-07-30T10:56:43;23.70;99.90
8105;DHT22;4095;48.942;9.104;2023-07-30T10:59:12;23.60;99.90
8105;DHT22;4095;48.942;9.104;2023-07-30T11:01:42;23.60;99.90
8105;DHT22;4095;48.942;9.104;2023-07-30T11:04:17;23.50;99.90
8105;DHT22;4095;48.942;9.104;2023-07-30T11:06:47;23.50;99.90
8105;DHT22;4095;48.942;9.104;2023-07-30T11:09:27;23.40;99.90
8105;DHT22;4095;48.942;9.104;2023-07-30T11:11:56;23.20;99.90
8105;DHT22;4095;48.942;9.104;2023-07-30T11:14:23;23.10;99.90
8105;DHT22;4095;48.942;9.104;2023-07-30T11:16:56;22.90;99.90
8105;DHT22;4095;48.942;9.104;2023-07-30T11:19:24;22.80;99.90
8105;DHT22;4095;48.942;9.104;2023-07-30T11:21:52;22.60;99.90
8105;DHT22;4095;48.942;9.104;2023-07-30T11:24:19;22.50;99.90
8105;DHT22;4095;48.942;9.104;2023-07-30T11:26:45;22.50;99.90
8105;DHT22;4095;48.942;9.104;2023-07-30T11:29:17;22.50;99.90
8105;DHT22;4095;48.942;9.104;2023-07-30T11:31:45;22.60;99.90
8105;DHT22;4095;48.942;9.104;2023-07-30T11:34:11;22.60;99.90
8105;DHT22;4095;48.942;9.104;2023-07-30T11:36:37;22.80;99.90
8105;DHT22;4095;48.942;9.104;2023-07-30T11:39:04;22.90;99.90
8105;DHT22;4095;48.942;9.104;2023-07-30T11:41:30;23.20;99.90
8105;DHT22;4095;48.942;9.104;2023-07-30T11:43:55;23.50;99.90
8105;DHT22;4095;48.942;9.104;2023-07-30T11:46:21;23.90;99.90
8105;DHT22;4095;48.942;9.104;2023-07-30T11:48:50;24.10;99.90
8105;DHT22;4095;48.942;9.104;2023-07-30T11:54:00;24.70;99.90
8105;DHT22;4095;48.942;9.104;2023-07-30T11:56:34;24.90;99.90
8105;DHT22;4095;48.942;9.104;2023-07-30T11:59:02;25.10;99.90
8105;DHT22;4095;48.942;9.104;2023-07-30T12:01:30;25.40;99.90
8105;DHT22;4095;48.942;9.104;2023-07-30T12:03:56;25.60;99.90
8105;DHT22;4095;48.942;9.104;2023-07-30T12:06:22;25.80;99.90
8105;DHT22;4095;48.942;9.104;2023-07-30T12:08:49;25.80;99.90
8105;DHT22;4095;48.942;9.104;2023-07-30T12:11:18;25.60;99.90
8105;DHT22;4095;48.942;9.104;2023-07-30T12:13:45;25.30;99.90
8105;DHT22;4095;48.942;9.104;2023-07-30T12:16:12;25.10;99.90
8105;DHT22;4095;48.942;9.104;2023-07-30T12:18:40;24.90;99.90
8105;DHT22;4095;48.942;9.104;2023-07-30T12:21:06;24.70;99.90
8105;DHT22;4095;48.942;9.104;2023-07-30T12:23:36;24.80;99.90
8105;DHT22;4095;48.942;9.104;2023-07-30T12:26:03;24.90;99.90
8105;DHT22;4095;48.942;9.104;2023-07-30T12:28:34;25.10;99.90
8105;DHT22;4095;48.942;9.104;2023-07-30T12:31:00;25.40;99.90
8105;DHT22;4095;48.942;9.104;2023-07-30T12:33:26;25.60;99.90
8105;DHT22;4095;48.942;9.104;2023-07-30T12:35:52;25.80;99.90
8105;DHT22;4095;48.942;9.104;2023-07-30T12:38:18;25.90;99.90
8105;DHT22;4095;48.942;9.104;2023-07-30T12:40:44;25.70;99.90
8105;DHT22;4095;48.942;9.104;2023-07-30T12:43:09;25.70;99.90
8105;DHT22;4095;48.942;9.104;2023-07-30T12:45:35;25.60;99.90
8105;DHT22;4095;48.942;9.104;2023-07-30T12:48:01;25.40;99.90
8105;DHT22;4095;48.942;9.104;2023-07-30T12:50:27;25.30;99.90
8105;DHT22;4095;48.942;9.104;2023-07-30T12:52:52;25.30;99.90
8105;DHT22;4095;48.942;9.104;2023-07-30T12:55:18;25.30;99.80
8105;DHT22;4095;48.942;9.104;2023-07-30T12:57:44;25.30;99.90
8105;DHT22;4095;48.942;9.104;2023-07-30T13:00:10;25.40;99.90
8105;DHT22;4095;48.942;9.104;2023-07-30T13:02:36;25.40;99.40
8105;DHT22;4095;48.942;9.104;2023-07-30T13:05:02;25.40;99.00
8105;DHT22;4095;48.942;9.104;2023-07-30T13:07:29;25.40;99.00
8105;DHT22;4095;48.942;9.104;2023-07-30T13:10:08;25.30;99.60
8105;DHT22;4095;48.942;9.104;2023-07-30T13:12:34;25.30;99.40
8105;DHT22;4095;48.942;9.104;2023-07-30T13:15:01;25.30;99.40
8105;DHT22;4095;48.942;9.104;2023-07-30T13:17:27;25.30;99.60
8105;DHT22;4095;48.942;9.104;2023-07-30T13:19:52;25.30;99.90
8105;DHT22;4095;48.942;9.104;2023-07-30T13:22:18;25.20;99.90
8105;DHT22;4095;48.942;9.104;2023-07-30T13:24:44;25.10;99.60
8105;DHT22;4095;48.942;9.104;2023-07-30T13:27:09;25.10;99.60
8105;DHT22;4095;48.942;9.104;2023-07-30T13:29:36;25.00;99.90
8105;DHT22;4095;48.942;9.104;2023-07-30T13:32:02;25.00;99.50
8105;DHT22;4095;48.942;9.104;2023-07-30T13:34:27;25.00;99.50
8105;DHT22;4095;48.942;9.104;2023-07-30T13:36:53;24.80;99.00
8105;DHT22;4095;48.942;9.104;2023-07-30T13:39:19;24.80;99.30
8105;DHT22;4095;48.942;9.104;2023-07-30T13:41:45;24.70;99.40
8105;DHT22;4095;48.942;9.104;2023-07-30T13:44:10;24.70;99.20
8105;DHT22;4095;48.942;9.104;2023-07-30T13:46:37;24.70;99.20
8105;DHT22;4095;48.942;9.104;2023-07-30T13:49:03;24.70;99.90
8105;DHT22;4095;48.942;9.104;2023-07-30T13:51:29;24.80;99.90
8105;DHT22;4095;48.942;9.104;2023-07-30T13:53:58;24.70;99.70
8105;DHT22;4095;48.942;9.104;2023-07-30T13:56:25;24.70;99.90
8105;DHT22;4095;48.942;9.104;2023-07-30T13:58:51;24.70;99.70
8105;DHT22;4095;48.942;9.104;2023-07-30T14:01:16;24.70;99.80
8105;DHT22;4095;48.942;9.104;2023-07-30T14:03:43;24.50;99.40
8105;DHT22;4095;48.942;9.104;2023-07-30T14:06:09;24.50;99.90
8105;DHT22;4095;48.942;9.104;2023-07-30T14:08:34;24.60;99.90
8105;DHT22;4095;48.942;9.104;2023-07-30T14:11:00;24.60;99.90
8105;DHT22;4095;48.942;9.104;2023-07-30T14:13:26;24.50;99.40
8105;DHT22;4095;48.942;9.104;2023-07-30T14:15:51;24.40;99.00
8105;DHT22;4095;48.942;9.104;2023-07-30T14:18:17;24.30;99.90
8105;DHT22;4095;48.942;9.104;2023-07-30T14:20:43;24.20;99.90
8105;DHT22;4095;48.942;9.104;2023-07-30T14:23:10;24.20;99.90
8105;DHT22;4095;48.942;9.104;2023-07-30T14:25:37;24.10;99.90
8105;DHT22;4095;48.942;9.104;2023-07-30T14:28:02;24.00;99.90
8105;DHT22;4095;48.942;9.104;2023-07-30T14:30:28;24.00;99.90
8105;DHT22;4095;48.942;9.104;2023-07-30T14:32:54;23.90;99.90
8105;DHT22;4095;48.942;9.104;2023-07-30T14:35:20;23.90;99.90
8105;DHT22;4095;48.942;9.104;2023-07-30T14:37:45;23.80;99.90
8105;DHT22;4095;48.942;9.104;2023-07-30T14:40:11;23.90;99.90
8105;DHT22;4095;48.942;9.104;2023-07-30T14:42:37;23.80;99.90
8105;DHT22;4095;48.942;9.104;2023-07-30T14:45:03;23.90;99.90
8105;DHT22;4095;48.942;9.104;2023-07-30T14:47:28;23.90;99.90
8105;DHT22;4095;48.942;9.104;2023-07-30T14:49:54;23.90;99.90
8105;DHT22;4095;48.942;9.104;2023-07-30T14:52:20;24.00;99.90
8105;DHT22;4095;48.942;9.104;2023-07-30T14:54:45;23.90;99.80
8105;DHT22;4095;48.942;9.104;2023-07-30T14:57:11;23.90;99.90
8105;DHT22;4095;48.942;9.104;2023-07-30T14:59:37;23.80;98.30
8105;DHT22;4095;48.942;9.104;2023-07-30T15:02:03;23.80;99.00
8105;DHT22;4095;48.942;9.104;2023-07-30T15:04:28;23.80;98.20
8105;DHT22;4095;48.942;9.104;2023-07-30T15:06:56;23.80;98.40
8105;DHT22;4095;48.942;9.104;2023-07-30T15:09:21;23.80;99.10
8105;DHT22;4095;48.942;9.104;2023-07-30T15:11:47;23.90;98.70
8105;DHT22;4095;48.942;9.104;2023-07-30T15:14:12;23.90;99.50
8105;DHT22;4095;48.942;9.104;2023-07-30T15:16:38;23.90;98.30
8105;DHT22;4095;48.942;9.104;2023-07-30T15:19:04;23.80;98.80
8105;DHT22;4095;48.942;9.104;2023-07-30T15:21:30;23.80;99.90
8105;DHT22;4095;48.942;9.104;2023-07-30T15:23:56;23.80;99.90
8105;DHT22;4095;48.942;9.104;2023-07-30T15:26:23;23.80;98.60
8105;DHT22;4095;48.942;9.104;2023-07-30T15:28:49;23.70;98.30
8105;DHT22;4095;48.942;9.104;2023-07-30T15:31:15;23.60;98.00
8105;DHT22;4095;48.942;9.104;2023-07-30T15:33:40;23.60;98.60
8105;DHT22;4095;48.942;9.104;2023-07-30T15:36:06;23.60;98.60
8105;DHT22;4095;48.942;9.104;2023-07-30T15:38:32;23.60;97.50
8105;DHT22;4095;48.942;9.104;2023-07-30T15:40:58;23.60;97.30
8105;DHT22;4095;48.942;9.104;2023-07-30T15:43:24;23.60;97.20
8105;DHT22;4095;48.942;9.104;2023-07-30T15:45:51;23.60;97.70
8105;DHT22;4095;48.942;9.104;2023-07-30T15:48:18;23.60;96.90
8105;DHT22;4095;48.942;9.104;2023-07-30T15:50:44;23.60;96.70
8105;DHT22;4095;48.942;9.104;2023-07-30T15:53:09;23.60;96.50
8105;DHT22;4095;48.942;9.104;2023-07-30T15:55:35;23.60;96.10
8105;DHT22;4095;48.942;9.104;2023-07-30T15:58:01;23.60;96.70
8105;DHT22;4095;48.942;9.104;2023-07-30T16:00:26;23.60;96.50
8105;DHT22;4095;48.942;9.104;2023-07-30T16:02:52;23.60;96.50